Time;durP1;ratioP1;P1;durP2;ratioP2;P2;SDS_P1;SDS_P2;PMS_P1;PMS_P2;Temp;Humidity;BMP_temperature;BMP_pressure;BME280_temperature;BME280_humidity;BME280_pressure;Samples;Min_cycle;Max_cycle;Signal;HPM_P1;HPM_P2
2022/01/28 00:01:23;;;;;;;4.65;4.25;;;5.40;99.90;;;;;;5014136;28;20212;-64
2022/01/28 00:04:00;;;;;;;4.38;3.97;;;5.40;99.90;;;;;;4996079;28;20634;-63
2022/01/28 00:06:28;;;;;;;4.65;4.32;;;5.40;99.90;;;;;;4991327;28;20260;-65
2022/01/28 00:08:55;;;;;;;7.97;4.88;;;5.40;99.90;;;;;;5013586;28;20229;-64
2022/01/28 00:11:23;;;;;;;4.68;4.28;;;5.40;99.90;;;;;;5013969;28;20193;-64
2022/01/28 00:13:59;;;;;;;8.57;5.22;;;5.30;99.90;;;;;;5014380;28;20646;-63
2022/01/28 00:19:50;;;;;;;4.88;4.47;;;5.40;99.90;;;;;;4996080;28;20225;-64
2022/01/28 00:38:44;;;;;;;5.60;4.35;;;5.90;99.90;;;;;;5004295;28;20248;-65
2022/01/28 00:41:14;;;;;;;4.43;4.05;;;5.80;99.90;;;;;;5013189;28;20551;-64
2022/01/28 00:43:43;;;;;;;4.60;4.30;;;6.00;99.90;;;;;;5012871;28;20664;-64
2022/01/28 00:46:12;;;;;;;4.65;4.25;;;6.10;99.90;;;;;;5012818;28;20316;-65
2022/01/28 00:48:40;;;;;;;3.78;3.47;;;6.20;99.90;;;;;;5013142;28;20229;-64
2022/01/28 00:51:08;;;;;;;4.97;3.50;;;6.10;99.90;;;;;;5012992;28;20292;-64
2022/01/28 00:53:36;;;;;;;9.10;4.47;;;6.10;99.90;;;;;;5011701;28;20726;-63
2022/01/28 00:56:04;;;;;;;5.13;3.90;;;6.20;99.90;;;;;;5012997;28;20231;-63
2022/01/28 00:58:32;;;;;;;5.07;3.90;;;6.10;99.90;;;;;;5012772;28;20233;-63
2022/01/28 01:01:00;;;;;;;4.70;4.30;;;6.20;99.90;;;;;;5012960;28;20292;-63
2022/01/28 01:03:29;;;;;;;5.95;4.43;;;6.10;99.90;;;;;;5012648;28;20193;-63
2022/01/28 01:05:57;;;;;;;6.40;4.25;;;6.10;99.90;;;;;;5012609;28;20791;-63
2022/01/28 01:08:25;;;;;;;4.60;3.65;;;6.10;99.90;;;;;;5012689;28;20631;-63
2022/01/28 01:10:54;;;;;;;3.28;2.97;;;6.00;99.90;;;;;;5012720;28;20300;-63
2022/01/28 01:13:22;;;;;;;7.03;3.25;;;5.80;99.90;;;;;;5013357;28;20307;-63
2022/01/28 01:15:54;;;;;;;4.97;2.58;;;5.80;99.90;;;;;;5011161;28;20753;-63
2022/01/28 01:18:28;;;;;;;4.97;2.50;;;5.80;99.90;;;;;;5012414;28;20201;-63
2022/01/28 01:21:04;;;;;;;8.07;2.85;;;5.80;99.90;;;;;;5006433;28;20288;-63
2022/01/28 01:23:35;;;;;;;4.40;2.92;;;6.00;99.90;;;;;;5007047;28;20295;-63
2022/01/28 01:26:09;;;;;;;4.07;2.03;;;6.10;99.90;;;;;;5012246;28;20272;-63
2022/01/28 01:28:39;;;;;;;2.95;1.90;;;6.20;99.90;;;;;;5012113;28;20197;-63
2022/01/28 01:31:12;;;;;;;2.97;1.98;;;6.20;99.90;;;;;;5012383;28;20205;-63
2022/01/28 01:33:45;;;;;;;5.53;2.40;;;6.20;99.90;;;;;;5012167;28;20212;-63
2022/01/28 01:36:14;;;;;;;5.15;2.22;;;6.30;99.90;;;;;;5019049;28;20235;-63
2022/01/28 01:38:42;;;;;;;3.13;2.20;;;6.20;99.90;;;;;;5013200;28;20221;-63
2022/01/28 01:41:15;;;;;;;4.38;1.83;;;6.20;99.90;;;;;;5012306;28;20236;-63
2022/01/28 01:43:53;;;;;;;8.23;2.22;;;6.30;99.90;;;;;;5014992;28;20287;-63
2022/01/28 01:46:24;;;;;;;3.20;1.63;;;6.30;99.90;;;;;;5006347;28;20201;-63
2022/01/28 01:54:24;;;;;;;6.90;2.28;;;5.70;99.90;;;;;;5011942;28;20323;-63
2022/01/28 01:56:55;;;;;;;4.78;1.80;;;5.50;99.90;;;;;;5011431;28;20221;-64
2022/01/28 01:59:23;;;;;;;6.43;2.03;;;5.40;99.90;;;;;;5012021;28;20296;-64
2022/01/28 02:01:50;;;;;;;8.55;1.88;;;5.50;99.90;;;;;;5011829;28;20284;-64
2022/01/28 02:04:19;;;;;;;2.63;1.65;;;5.50;99.90;;;;;;5011129;28;20236;-64
2022/01/28 02:06:48;;;;;;;3.75;1.30;;;5.40;99.90;;;;;;5011570;28;20236;-64
2022/01/28 02:09:16;;;;;;;4.00;1.10;;;5.50;99.90;;;;;;5011926;28;20259;-64
2022/01/28 02:11:44;;;;;;;6.90;1.67;;;5.60;99.90;;;;;;5011684;28;20698;-65
2022/01/28 02:14:12;;;;;;;7.25;1.95;;;5.50;99.90;;;;;;5012183;28;20311;-64
2022/01/28 02:16:40;;;;;;;5.80;1.83;;;5.60;99.90;;;;;;5011447;28;20252;-64
2022/01/28 02:19:08;;;;;;;5.07;1.40;;;5.60;99.90;;;;;;5005088;28;20663;-64
2022/01/28 02:21:43;;;;;;;5.88;2.45;;;5.70;99.90;;;;;;5005041;28;20699;-64
2022/01/28 02:24:13;;;;;;;7.18;1.13;;;5.80;99.90;;;;;;5005627;28;20304;-64
2022/01/28 02:26:41;;;;;;;3.35;1.38;;;5.90;99.90;;;;;;5011528;28;20209;-63
2022/01/28 02:29:12;;;;;;;2.63;1.20;;;6.00;99.90;;;;;;5011518;28;20288;-64
2022/01/28 02:31:41;;;;;;;2.33;1.30;;;6.20;99.90;;;;;;5011481;28;20284;-64
2022/01/28 02:34:10;;;;;;;7.13;2.20;;;6.40;99.90;;;;;;5010905;28;20228;-64
2022/01/28 02:36:40;;;;;;;3.55;1.45;;;6.50;99.90;;;;;;5011553;28;20725;-64
2022/01/28 02:39:10;;;;;;;6.20;1.88;;;6.50;99.90;;;;;;5011487;28;20197;-64
2022/01/28 02:41:42;;;;;;;5.13;2.38;;;6.50;99.90;;;;;;5015404;28;20205;-64
2022/01/28 02:44:18;;;;;;;5.38;1.55;;;6.50;99.90;;;;;;5018554;28;20311;-64
2022/01/28 02:46:56;;;;;;;2.70;1.70;;;6.50;99.90;;;;;;5011118;28;20287;-64
2022/01/28 02:49:27;;;;;;;4.07;2.05;;;6.50;99.90;;;;;;5011464;28;20217;-64
2022/01/28 02:51:58;;;;;;;4.40;1.70;;;6.20;99.90;;;;;;5011284;28;20292;-64
2022/01/28 02:54:26;;;;;;;3.13;1.58;;;6.00;99.90;;;;;;5004936;28;20633;-64
2022/01/28 02:56:59;;;;;;;3.55;1.30;;;5.60;99.90;;;;;;5011170;28;20670;-64
2022/01/28 02:59:27;;;;;;;2.65;1.95;;;5.50;99.90;;;;;;5011515;28;20284;-63
2022/01/28 03:01:55;;;;;;;7.90;1.80;;;5.30;99.90;;;;;;5011019;28;20288;-63
2022/01/28 03:04:50;;;;;;;4.40;1.35;;;5.20;99.90;;;;;;5010748;28;20740;-63
2022/01/28 03:07:22;;;;;;;2.25;0.80;;;5.20;99.90;;;;;;5010948;28;20209;-63
2022/01/28 03:10:12;;;;;;;1.58;0.95;;;5.20;99.90;;;;;;5011167;28;20284;-63
2022/01/28 03:13:00;;;;;;;5.00;1.45;;;5.30;99.90;;;;;;5010888;28;20256;-63
2022/01/28 03:15:26;;;;;;;2.92;1.20;;;5.20;99.90;;;;;;5010516;28;20244;-63
2022/01/28 03:18:06;;;;;;;6.68;1.90;;;5.30;99.90;;;;;;5011636;28;20197;-63
2022/01/28 03:20:39;;;;;;;10.35;2.65;;;5.40;99.90;;;;;;5012670;28;20283;-63
2022/01/28 03:23:09;;;;;;;5.07;1.88;;;5.20;99.90;;;;;;5014579;28;20288;-63
2022/01/28 03:25:42;;;;;;;8.10;2.42;;;5.30;99.90;;;;;;5014351;28;20238;-63
2022/01/28 03:28:11;;;;;;;5.57;1.60;;;5.30;99.90;;;;;;5014574;28;20602;-63
2022/01/28 03:30:39;;;;;;;9.45;2.55;;;5.30;99.90;;;;;;5014541;28;20236;-63
2022/01/28 03:33:07;;;;;;;4.38;2.05;;;5.30;99.90;;;;;;5014444;28;20248;-63
2022/01/28 03:35:36;;;;;;;3.53;1.70;;;5.30;99.90;;;;;;5014375;28;20316;-63
2022/01/28 03:38:07;;;;;;;4.63;2.50;;;5.40;99.90;;;;;;5014311;28;20251;-63
2022/01/28 03:40:37;;;;;;;6.85;2.20;;;5.30;99.90;;;;;;5014637;28;20304;-63
2022/01/28 03:43:05;;;;;;;7.55;2.90;;;5.50;99.90;;;;;;5014109;28;20288;-63
2022/01/28 03:45:33;;;;;;;6.57;1.80;;;5.40;99.90;;;;;;5014025;28;20256;-62
2022/01/28 03:48:01;;;;;;;5.28;2.63;;;5.30;99.90;;;;;;5018199;28;20241;-63
2022/01/28 03:50:32;;;;;;;11.05;2.38;;;5.40;99.90;;;;;;5016350;28;20216;-63
2022/01/28 03:53:01;;;;;;;8.90;2.33;;;5.50;99.90;;;;;;5014064;28;20208;-63
2022/01/28 03:55:29;;;;;;;9.98;2.05;;;5.40;99.90;;;;;;5014059;28;20651;-63
2022/01/28 03:57:58;;;;;;;9.18;2.38;;;5.40;99.90;;;;;;5014290;28;20292;-63
2022/01/28 04:00:29;;;;;;;7.82;2.65;;;5.40;99.90;;;;;;5013978;28;20320;-63
2022/01/28 04:03:05;;;;;;;9.60;2.03;;;5.40;99.90;;;;;;5013873;28;20233;-63
2022/01/28 04:14:12;;;;;;;6.90;2.05;;;5.10;99.90;;;;;;5013562;28;20243;-63
2022/01/28 04:19:26;;;;;;;3.72;1.70;;;5.30;99.90;;;;;;5008469;28;20725;-63
2022/01/28 04:21:54;;;;;;;5.97;2.30;;;5.20;99.90;;;;;;5013562;28;20292;-63
2022/01/28 04:24:22;;;;;;;4.85;1.70;;;5.40;99.90;;;;;;5013220;28;20223;-64
2022/01/28 04:26:50;;;;;;;4.63;2.20;;;5.30;99.90;;;;;;5013641;28;20324;-64
2022/01/28 04:29:19;;;;;;;7.15;1.90;;;5.30;99.90;;;;;;5013293;28;20267;-64
2022/01/28 04:31:48;;;;;;;11.20;2.65;;;5.50;99.90;;;;;;5013313;28;20214;-64
2022/01/28 04:34:18;;;;;;;6.18;1.42;;;5.60;99.90;;;;;;5013391;28;20275;-63
2022/01/28 04:36:54;;;;;;;9.85;2.10;;;5.60;99.90;;;;;;5013474;28;20240;-64
2022/01/28 04:39:28;;;;;;;7.85;2.20;;;5.60;99.90;;;;;;5013271;28;20220;-62
2022/01/28 04:42:05;;;;;;;7.28;2.50;;;5.70;99.90;;;;;;5013321;28;20300;-64
2022/01/28 04:44:43;;;;;;;6.18;2.03;;;5.40;99.90;;;;;;5013264;28;20295;-64
2022/01/28 04:47:17;;;;;;;6.45;1.98;;;5.30;99.90;;;;;;5013141;28;20569;-64
2022/01/28 04:49:56;;;;;;;9.88;2.75;;;5.40;99.90;;;;;;5010250;28;20582;-64
2022/01/28 04:52:51;;;;;;;11.05;2.63;;;5.40;99.90;;;;;;5012835;28;20205;-64
2022/01/28 04:58:13;;;;;;;12.10;2.53;;;5.50;99.90;;;;;;4990694;28;20224;-64
2022/01/28 05:00:54;;;;;;;12.02;2.50;;;5.50;99.90;;;;;;5012930;28;20212;-63
2022/01/28 05:03:39;;;;;;;10.82;2.53;;;5.60;99.90;;;;;;5012862;28;20256;-63
2022/01/28 05:12:41;;;;;;;6.88;2.30;;;5.50;99.90;;;;;;4997706;28;20320;-64
2022/01/28 05:26:26;;;;;;;14.55;2.70;;;5.40;99.90;;;;;;5004192;28;20251;-63
2022/01/28 05:28:54;;;;;;;16.55;2.58;;;5.40;99.90;;;;;;5006831;28;20311;-64
2022/01/28 05:31:22;;;;;;;11.38;2.53;;;5.40;99.90;;;;;;5006733;28;20209;-64
2022/01/28 05:33:51;;;;;;;6.25;2.53;;;5.30;99.90;;;;;;5006984;28;20209;-64
2022/01/28 05:36:19;;;;;;;7.53;2.70;;;5.20;99.90;;;;;;5006847;28;20654;-64
2022/01/28 05:38:47;;;;;;;13.45;2.80;;;5.30;99.90;;;;;;5006605;28;20201;-64
2022/01/28 05:41:15;;;;;;;7.60;2.92;;;5.30;99.90;;;;;;5006242;28;20701;-64
2022/01/28 05:43:43;;;;;;;10.80;2.50;;;5.30;99.90;;;;;;5006529;28;20308;-64
2022/01/28 05:46:11;;;;;;;15.38;2.92;;;5.30;99.90;;;;;;5006598;28;20295;-64
2022/01/28 05:48:39;;;;;;;6.88;2.13;;;5.30;99.90;;;;;;5006585;28;20205;-64
2022/01/28 05:51:08;;;;;;;5.43;2.58;;;5.30;99.90;;;;;;5006493;28;20220;-64
2022/01/28 05:53:36;;;;;;;7.80;2.45;;;5.30;99.90;;;;;;5006607;28;20586;-65
2022/01/28 05:56:04;;;;;;;7.50;2.00;;;5.30;99.90;;;;;;5005980;28;20321;-65
2022/01/28 05:58:32;;;;;;;8.88;2.65;;;5.50;99.90;;;;;;5007299;28;20642;-64
2022/01/28 06:01:00;;;;;;;8.73;2.10;;;5.60;99.90;;;;;;5014687;28;20214;-64
2022/01/28 06:03:28;;;;;;;8.32;3.47;;;5.70;99.90;;;;;;5006263;28;20213;-64
2022/01/28 06:05:55;;;;;;;10.18;2.50;;;5.90;99.90;;;;;;5006271;28;20228;-66
2022/01/28 06:08:25;;;;;;;3.75;2.53;;;6.00;99.90;;;;;;5006313;28;20208;-64
2022/01/28 06:10:53;;;;;;;4.10;2.60;;;6.10;99.90;;;;;;4999562;28;20319;-64
2022/01/28 06:13:20;;;;;;;13.93;3.15;;;6.00;99.90;;;;;;5005267;28;20308;-64
2022/01/28 06:15:55;;;;;;;7.88;2.70;;;5.90;99.90;;;;;;5002515;28;20788;-64
2022/01/28 06:18:23;;;;;;;10.52;2.95;;;5.70;99.90;;;;;;5006258;28;20590;-64
2022/01/28 06:20:51;;;;;;;7.55;2.78;;;5.40;99.90;;;;;;5005902;28;20292;-64
2022/01/28 06:23:19;;;;;;;8.38;3.38;;;5.40;99.90;;;;;;5005365;28;20304;-64
2022/01/28 06:25:49;;;;;;;15.02;3.50;;;5.50;99.90;;;;;;5005767;28;20623;-64
2022/01/28 06:28:16;;;;;;;8.60;2.60;;;5.60;99.90;;;;;;5005992;28;20646;-64
2022/01/28 06:30:44;;;;;;;11.25;3.70;;;5.60;99.90;;;;;;5005988;28;20225;-64
2022/01/28 06:33:13;;;;;;;9.13;2.38;;;5.90;99.90;;;;;;5005775;28;20309;-64
2022/01/28 06:35:41;;;;;;;5.30;2.35;;;5.70;99.90;;;;;;5001294;28;20727;-64
2022/01/28 06:38:09;;;;;;;11.57;3.50;;;5.50;99.90;;;;;;5005771;28;20279;-65
2022/01/28 06:40:37;;;;;;;11.45;3.47;;;5.30;99.90;;;;;;5005809;28;20280;-64
2022/01/28 06:43:09;;;;;;;9.10;3.00;;;5.20;99.90;;;;;;5005351;28;20308;-64
2022/01/28 06:45:40;;;;;;;8.43;2.90;;;5.30;99.90;;;;;;5005969;28;20225;-64
2022/01/28 06:48:08;;;;;;;11.73;3.90;;;5.30;99.90;;;;;;5005573;28;20301;-63
2022/01/28 06:50:35;;;;;;;15.52;3.90;;;5.20;99.90;;;;;;5005489;28;20760;-62
2022/01/28 06:53:03;;;;;;;11.93;2.90;;;5.10;99.90;;;;;;5007656;28;20197;-62
2022/01/28 06:55:31;;;;;;;11.50;3.85;;;4.90;99.90;;;;;;5009728;28;20279;-61
2022/01/28 06:57:59;;;;;;;10.32;3.35;;;4.80;99.90;;;;;;5009687;28;20201;-62
2022/01/28 07:00:30;;;;;;;8.52;3.30;;;4.80;99.90;;;;;;5009487;28;20197;-62
2022/01/28 07:02:58;;;;;;;4.38;2.17;;;4.70;99.90;;;;;;5009463;28;20209;-62
2022/01/28 07:05:26;;;;;;;10.98;3.10;;;4.70;99.90;;;;;;5010854;28;20224;-62
2022/01/28 07:07:54;;;;;;;15.55;3.50;;;4.70;99.90;;;;;;5011874;28;20205;-62
2022/01/28 07:10:22;;;;;;;11.32;3.15;;;4.60;99.90;;;;;;5009150;28;20272;-62
2022/01/28 07:12:53;;;;;;;10.63;3.05;;;4.50;99.90;;;;;;5009455;28;20201;-62
2022/01/28 07:15:21;;;;;;;8.18;2.67;;;4.50;99.90;;;;;;5009468;28;20781;-62
2022/01/28 07:17:51;;;;;;;8.07;3.17;;;4.50;99.90;;;;;;5009134;28;20212;-64
2022/01/28 07:20:24;;;;;;;13.55;3.90;;;4.50;99.90;;;;;;5008074;28;20275;-62
2022/01/28 07:22:52;;;;;;;15.15;3.17;;;4.60;99.90;;;;;;5009185;28;20246;-62
2022/01/28 07:25:19;;;;;;;15.80;3.92;;;4.50;99.90;;;;;;5008974;28;20695;-63
2022/01/28 07:27:47;;;;;;;8.88;2.80;;;4.60;99.90;;;;;;5009033;28;20320;-62
2022/01/28 07:30:15;;;;;;;11.02;3.10;;;4.60;99.90;;;;;;5040980;23;20315;-69
2022/01/28 07:32:44;;;;;;;10.00;3.38;;;4.60;99.90;;;;;;5021543;28;20204;-71
2022/01/28 07:35:13;;;;;;;11.60;3.05;;;4.60;99.90;;;;;;5014983;28;20201;-71
2022/01/28 07:37:41;;;;;;;9.00;3.28;;;4.70;99.90;;;;;;5015388;28;20655;-71
2022/01/28 07:40:11;;;;;;;8.40;2.92;;;4.80;99.90;;;;;;5013530;28;20316;-71
2022/01/28 07:42:39;;;;;;;6.47;2.80;;;4.90;99.90;;;;;;5014442;28;20481;-71
2022/01/28 07:45:09;;;;;;;10.85;3.17;;;5.10;99.90;;;;;;5014492;28;20640;-71
2022/01/28 07:47:37;;;;;;;4.53;2.35;;;5.20;99.90;;;;;;5009478;28;20225;-71
2022/01/28 07:50:06;;;;;;;13.18;2.88;;;5.30;99.90;;;;;;5012855;28;20272;-71
2022/01/28 07:52:35;;;;;;;5.25;2.63;;;5.40;99.90;;;;;;4993369;28;20244;-71
2022/01/28 07:55:04;;;;;;;6.78;2.17;;;5.50;99.90;;;;;;5014149;28;20300;-71
2022/01/28 07:57:34;;;;;;;9.90;2.95;;;5.70;99.90;;;;;;5014157;28;20281;-71
2022/01/28 08:00:03;;;;;;;7.55;2.40;;;5.80;99.90;;;;;;5014356;28;20308;-71
2022/01/28 08:02:31;;;;;;;8.50;2.63;;;5.70;99.90;;;;;;5013120;28;20655;-71
2022/01/28 08:04:59;;;;;;;9.25;2.50;;;5.70;99.90;;;;;;5014123;28;20670;-72
2022/01/28 08:07:27;;;;;;;9.43;2.53;;;5.70;99.90;;;;;;5014116;28;20296;-71
2022/01/28 08:09:56;;;;;;;6.80;2.67;;;5.70;99.90;;;;;;5013729;28;20236;-70
2022/01/28 08:12:24;;;;;;;12.32;3.35;;;5.70;99.90;;;;;;5013665;28;20526;-71
2022/01/28 08:14:52;;;;;;;8.32;3.38;;;5.60;99.90;;;;;;5013729;28;20262;-71
2022/01/28 08:17:20;;;;;;;12.57;3.55;;;5.60;99.90;;;;;;5015410;28;20224;-71
2022/01/28 08:19:48;;;;;;;11.60;4.45;;;5.50;99.90;;;;;;5017055;28;20253;-72
2022/01/28 08:22:15;;;;;;;11.48;3.33;;;5.50;99.90;;;;;;5013333;28;20224;-71
2022/01/28 08:24:43;;;;;;;13.10;3.88;;;5.50;99.90;;;;;;5013697;28;20670;-72
2022/01/28 08:27:13;;;;;;;9.20;3.75;;;5.50;99.90;;;;;;5013620;28;20292;-71
2022/01/28 08:29:41;;;;;;;8.07;2.80;;;5.50;99.90;;;;;;5013314;28;20332;-72
2022/01/28 08:32:13;;;;;;;12.23;4.05;;;5.50;99.90;;;;;;5013376;28;20308;-71
2022/01/28 08:34:42;;;;;;;7.47;2.70;;;5.60;99.90;;;;;;5013536;28;20213;-72
2022/01/28 08:37:10;;;;;;;7.07;3.00;;;5.60;99.90;;;;;;5013545;28;20725;-72
2022/01/28 08:39:39;;;;;;;8.75;3.45;;;5.60;99.90;;;;;;5013329;28;20225;-72
2022/01/28 08:42:08;;;;;;;8.95;2.80;;;5.60;99.90;;;;;;5013031;28;20276;-71
2022/01/28 08:44:37;;;;;;;10.25;3.50;;;5.60;99.90;;;;;;5013391;28;20232;-72
2022/01/28 08:47:06;;;;;;;14.30;3.20;;;5.60;99.90;;;;;;5010906;28;20655;-71
2022/01/28 08:49:34;;;;;;;12.98;3.33;;;5.70;99.90;;;;;;5022045;28;20231;-72
2022/01/28 08:52:02;;;;;;;10.75;2.55;;;5.70;99.90;;;;;;5012544;28;20229;-72
2022/01/28 08:54:30;;;;;;;8.48;2.70;;;5.70;99.90;;;;;;5013032;28;20654;-71
2022/01/28 08:56:58;;;;;;;13.15;2.85;;;5.70;99.90;;;;;;5013282;28;20206;-72
2022/01/28 08:59:39;;;;;;;8.63;3.72;;;5.70;99.90;;;;;;5013135;28;20248;-73
2022/01/28 09:02:07;;;;;;;13.85;3.20;;;5.80;99.90;;;;;;5012669;28;20203;-72
2022/01/28 09:04:35;;;;;;;10.93;3.28;;;6.00;99.90;;;;;;5012994;28;20251;-71
2022/01/28 09:07:03;;;;;;;15.25;4.43;;;6.10;99.90;;;;;;5012886;28;20292;-69
2022/01/28 09:09:31;;;;;;;8.40;2.90;;;6.40;99.90;;;;;;5013173;28;20260;-72
2022/01/28 09:12:08;;;;;;;9.82;3.22;;;6.60;99.90;;;;;;5012379;28;20763;-69
2022/01/28 09:14:38;;;;;;;5.65;2.13;;;7.00;99.90;;;;;;5011896;28;20209;-72
2022/01/28 09:17:06;;;;;;;9.98;3.33;;;7.20;99.90;;;;;;5015489;28;20638;-71
2022/01/28 09:19:33;;;;;;;12.15;3.40;;;7.20;99.90;;;;;;5008646;28;20308;-68
2022/01/28 09:22:01;;;;;;;10.55;2.90;;;7.10;99.90;;;;;;5011931;28;20190;-71
2022/01/28 09:24:29;;;;;;;6.13;2.78;;;7.10;99.90;;;;;;5012738;28;20201;-71
2022/01/28 09:26:57;;;;;;;5.15;2.35;;;7.00;99.90;;;;;;5012388;28;20296;-72
2022/01/28 09:29:25;;;;;;;7.28;2.45;;;7.00;99.90;;;;;;5012470;28;20279;-71
2022/01/28 09:31:54;;;;;;;10.90;3.22;;;7.10;99.90;;;;;;5012408;28;20842;-72
2022/01/28 09:34:22;;;;;;;7.07;2.58;;;7.10;99.90;;;;;;5012311;28;20631;-72
2022/01/28 09:36:50;;;;;;;8.63;2.58;;;7.10;99.90;;;;;;5012153;28;20233;-72
2022/01/28 09:39:19;;;;;;;13.00;3.80;;;7.10;99.90;;;;;;5012245;28;20193;-71
2022/01/28 09:41:48;;;;;;;10.93;3.00;;;7.00;99.90;;;;;;5012282;28;20201;-72
2022/01/28 09:44:18;;;;;;;11.60;3.47;;;6.90;99.90;;;;;;5012050;28;20662;-71
2022/01/28 09:46:46;;;;;;;6.68;3.05;;;6.80;99.90;;;;;;5012060;28;20208;-71
2022/01/28 09:49:21;;;;;;;11.85;2.85;;;6.90;99.90;;;;;;5011332;28;20193;-72
2022/01/28 09:51:49;;;;;;;10.88;3.83;;;7.00;99.90;;;;;;5022889;28;20315;-72
2022/01/28 09:54:17;;;;;;;7.22;2.85;;;7.00;99.90;;;;;;5012000;28;20197;-72
2022/01/28 09:56:45;;;;;;;10.10;2.70;;;7.00;99.90;;;;;;5011918;28;20229;-71
2022/01/28 09:59:13;;;;;;;10.48;3.33;;;7.00;99.90;;;;;;5012215;28;20213;-72
2022/01/28 10:01:48;;;;;;;8.23;3.13;;;6.90;99.90;;;;;;5011873;28;20601;-72
2022/01/28 10:04:17;;;;;;;9.60;3.20;;;6.90;99.90;;;;;;5012180;28;20220;-72
2022/01/28 10:06:48;;;;;;;7.85;2.45;;;6.80;99.90;;;;;;5011743;28;20700;-72
2022/01/28 10:09:19;;;;;;;8.10;3.17;;;6.80;99.90;;;;;;5005706;28;20197;-72
2022/01/28 10:11:50;;;;;;;10.20;3.67;;;6.90;99.90;;;;;;5006081;28;20213;-71
2022/01/28 10:14:21;;;;;;;10.95;3.40;;;6.90;99.90;;;;;;5011722;28;20306;-71
2022/01/28 10:16:57;;;;;;;9.60;2.70;;;7.00;99.90;;;;;;5011800;28;20205;-72
2022/01/28 10:19:27;;;;;;;9.75;2.50;;;7.00;99.90;;;;;;5015877;28;20620;-71
2022/01/28 10:21:56;;;;;;;6.65;3.22;;;7.30;99.90;;;;;;5014611;28;20237;-69
2022/01/28 10:24:26;;;;;;;7.38;2.75;;;7.90;99.90;;;;;;5011580;28;20247;-72
2022/01/28 10:26:55;;;;;;;6.68;2.47;;;8.00;99.90;;;;;;5011739;28;20270;-71
2022/01/28 10:29:25;;;;;;;10.05;2.65;;;8.20;99.90;;;;;;5011480;28;20316;-71
2022/01/28 10:31:55;;;;;;;5.70;2.25;;;8.50;99.90;;;;;;5011659;28;20248;-72
2022/01/28 10:34:27;;;;;;;11.23;2.92;;;9.00;99.90;;;;;;5011700;28;20728;-72
2022/01/28 10:37:10;;;;;;;6.05;2.60;;;9.70;99.90;;;;;;5011354;28;20240;-72
2022/01/28 10:39:44;;;;;;;5.07;1.90;;;10.40;99.90;;;;;;5005617;28;20663;-72
2022/01/28 10:42:13;;;;;;;10.45;2.58;;;10.60;99.90;;;;;;5011445;28;20280;-72
2022/01/28 10:44:53;;;;;;;11.75;2.90;;;10.60;99.90;;;;;;5011516;28;20201;-72
2022/01/28 10:47:36;;;;;;;7.47;2.40;;;10.50;99.90;;;;;;5011577;28;20232;-72
2022/01/28 10:50:23;;;;;;;6.10;2.15;;;10.00;99.90;;;;;;5021376;28;20255;-72
2022/01/28 10:53:06;;;;;;;6.57;2.55;;;9.60;99.90;;;;;;5013134;28;20710;-72
2022/01/28 10:55:36;;;;;;;7.75;3.10;;;9.50;99.90;;;;;;5011553;28;20300;-73
2022/01/28 10:58:06;;;;;;;7.05;2.90;;;9.70;99.90;;;;;;5011431;28;20213;-72
2022/01/28 11:00:36;;;;;;;5.63;2.83;;;10.20;99.90;;;;;;5011245;28;20267;-72
2022/01/28 11:03:06;;;;;;;12.50;2.65;;;10.20;99.90;;;;;;5011406;28;20260;-72
2022/01/28 11:05:36;;;;;;;7.22;2.42;;;10.30;99.90;;;;;;5011260;28;20252;-72
2022/01/28 11:08:07;;;;;;;6.55;1.80;;;10.40;99.90;;;;;;5010827;28;20288;-72
2022/01/28 11:10:36;;;;;;;7.88;2.80;;;10.60;99.90;;;;;;5011177;28;20220;-72
2022/01/28 11:13:04;;;;;;;10.18;2.40;;;10.30;99.90;;;;;;5011131;28;20332;-73
2022/01/28 11:15:33;;;;;;;5.43;2.40;;;10.10;99.90;;;;;;5011485;28;20287;-70
2022/01/28 11:18:03;;;;;;;9.07;2.58;;;10.20;99.90;;;;;;5011070;28;20292;-72
2022/01/28 11:20:39;;;;;;;7.65;2.17;;;10.40;99.90;;;;;;5014424;28;20782;-71
2022/01/28 11:23:18;;;;;;;6.90;2.65;;;10.80;99.90;;;;;;5005329;28;20717;-72
2022/01/28 11:26:04;;;;;;;6.68;2.65;;;11.00;99.90;;;;;;5011230;28;20740;-70
2022/01/28 11:28:40;;;;;;;10.52;3.97;;;11.00;99.90;;;;;;5010999;28;20201;-72
2022/01/28 11:31:09;;;;;;;8.70;2.70;;;10.70;99.90;;;;;;5010845;28;20331;-71
2022/01/28 11:33:45;;;;;;;9.02;2.45;;;10.40;99.90;;;;;;5010855;28;20257;-72
2022/01/28 11:36:13;;;;;;;10.55;2.90;;;10.10;99.90;;;;;;5005219;28;20209;-72
2022/01/28 11:38:44;;;;;;;13.18;3.10;;;9.60;99.90;;;;;;5015471;28;20285;-71
2022/01/28 11:41:24;;;;;;;8.10;3.13;;;9.10;99.90;;;;;;5015989;28;20624;-72
2022/01/28 11:43:54;;;;;;;7.07;2.47;;;9.30;99.90;;;;;;5014709;28;20197;-70
2022/01/28 11:46:24;;;;;;;9.07;3.00;;;9.50;99.90;;;;;;5014827;28;20197;-73
2022/01/28 11:49:21;;;;;;;8.15;2.92;;;9.90;99.90;;;;;;5010254;28;20280;-72
2022/01/28 11:51:50;;;;;;;7.05;2.83;;;9.80;99.90;;;;;;5019010;28;20233;-72
2022/01/28 11:54:25;;;;;;;8.18;3.20;;;10.00;99.90;;;;;;5014343;28;20288;-72
2022/01/28 11:57:14;;;;;;;10.02;2.63;;;9.60;99.90;;;;;;5014381;28;20291;-72
2022/01/28 11:59:42;;;;;;;7.53;2.30;;;9.30;99.90;;;;;;5014589;28;20253;-72
2022/01/28 12:02:13;;;;;;;10.85;2.92;;;9.30;99.90;;;;;;5014349;28;20225;-72
2022/01/28 12:04:44;;;;;;;7.70;2.70;;;9.80;99.90;;;;;;5014312;28;20658;-72
2022/01/28 12:07:15;;;;;;;8.02;2.35;;;10.00;99.90;;;;;;5014380;28;20205;-73
2022/01/28 12:09:46;;;;;;;9.52;2.90;;;10.20;99.90;;;;;;5014194;28;20251;-72
2022/01/28 12:12:22;;;;;;;12.15;2.95;;;10.50;99.90;;;;;;5007835;28;20304;-73
2022/01/28 12:15:09;;;;;;;9.30;2.65;;;10.90;99.90;;;;;;5014014;28;20197;-72
2022/01/28 12:17:42;;;;;;;12.93;3.55;;;10.90;99.90;;;;;;5014418;28;20232;-73
2022/01/28 12:20:38;;;;;;;7.88;2.55;;;10.40;99.90;;;;;;5016886;28;20751;-72
2022/01/28 12:23:30;;;;;;;9.70;2.58;;;9.90;99.90;;;;;;5009416;28;20196;-72
2022/01/28 12:26:00;;;;;;;10.77;2.90;;;9.40;99.90;;;;;;5014014;28;20253;-72
2022/01/28 12:28:44;;;;;;;10.25;3.17;;;9.20;99.90;;;;;;5013723;28;20197;-72
2022/01/28 12:31:17;;;;;;;9.75;3.70;;;9.00;99.90;;;;;;5013656;28;20265;-72
2022/01/28 12:33:48;;;;;;;15.88;4.47;;;9.20;99.90;;;;;;5013548;28;20571;-73
2022/01/28 12:36:18;;;;;;;10.63;2.63;;;9.40;99.90;;;;;;5014069;28;20209;-73
2022/01/28 12:38:59;;;;;;;11.88;6.00;;;9.70;99.90;;;;;;5013743;28;20205;-73
2022/01/28 12:41:30;;;;;;;9.55;3.38;;;10.20;99.90;;;;;;5013839;28;20288;-72
2022/01/28 12:43:58;;;;;;;14.27;3.25;;;10.80;99.90;;;;;;5013221;28;20248;-73
2022/01/28 12:46:27;;;;;;;12.15;3.33;;;10.70;99.90;;;;;;5013582;28;20584;-73
2022/01/28 12:48:58;;;;;;;10.60;3.83;;;10.50;99.90;;;;;;5015899;28;20193;-72
2022/01/28 12:51:26;;;;;;;13.50;6.88;;;9.90;99.90;;;;;;5017512;28;20213;-71
2022/01/28 12:53:55;;;;;;;10.98;3.97;;;9.60;99.90;;;;;;5013405;28;20411;-72
2022/01/28 12:56:33;;;;;;;10.93;2.65;;;9.40;99.90;;;;;;5013746;28;20628;-72
2022/01/28 12:59:02;;;;;;;10.75;2.08;;;9.20;99.90;;;;;;5013255;28;20671;-71
2022/01/28 13:01:31;;;;;;;19.38;3.80;;;8.80;99.90;;;;;;5013469;28;20255;-71
2022/01/28 13:04:09;;;;;;;11.63;3.58;;;8.50;99.90;;;;;;5013125;28;20594;-71
2022/01/28 13:06:59;;;;;;;8.40;2.20;;;8.40;99.90;;;;;;5013515;28;20267;-72
2022/01/28 13:09:32;;;;;;;9.88;4.70;;;8.30;99.90;;;;;;5013179;28;20248;-72
2022/01/28 13:12:03;;;;;;;12.30;4.25;;;8.30;99.90;;;;;;5013170;28;20292;-71
2022/01/28 13:14:33;;;;;;;15.10;3.47;;;8.40;99.90;;;;;;5013208;28;20315;-72
2022/01/28 13:17:05;;;;;;;13.77;2.90;;;8.40;99.90;;;;;;5007273;28;20658;-72
2022/01/28 13:19:33;;;;;;;17.00;5.72;;;8.50;99.90;;;;;;5012742;28;20224;-68
2022/01/28 13:22:02;;;;;;;8.35;2.97;;;8.40;99.90;;;;;;5017476;28;20206;-71
2022/01/28 13:24:30;;;;;;;6.82;2.80;;;8.40;99.90;;;;;;5006756;28;20216;-71
2022/01/28 13:27:02;;;;;;;9.30;2.80;;;8.40;99.90;;;;;;5012547;28;20292;-72
2022/01/28 13:29:36;;;;;;;9.05;3.30;;;8.40;99.90;;;;;;5013700;28;20717;-71
2022/01/28 13:32:07;;;;;;;12.10;2.60;;;8.30;99.90;;;;;;4994689;28;20743;-72
2022/01/28 13:34:48;;;;;;;9.10;2.30;;;8.20;99.90;;;;;;5012387;28;20267;-69
2022/01/28 13:37:38;;;;;;;13.68;2.92;;;8.10;99.90;;;;;;5012370;28;20252;-72
2022/01/28 13:40:10;;;;;;;13.43;3.00;;;8.10;99.90;;;;;;5012619;28;20276;-72
2022/01/28 13:42:56;;;;;;;10.38;3.75;;;8.20;99.90;;;;;;4994800;28;20677;-72
2022/01/28 13:45:30;;;;;;;6.70;2.63;;;8.30;99.90;;;;;;5012684;28;20631;-72
2022/01/28 13:48:01;;;;;;;7.60;2.40;;;8.40;99.90;;;;;;5009834;28;20300;-72
2022/01/28 13:50:31;;;;;;;6.70;2.85;;;8.60;99.90;;;;;;5015655;28;20249;-71
2022/01/28 13:53:20;;;;;;;13.98;3.42;;;8.70;99.90;;;;;;5018307;28;20726;-72
2022/01/28 13:55:49;;;;;;;9.90;2.67;;;8.60;99.90;;;;;;5012601;28;20268;-71
2022/01/28 13:58:19;;;;;;;7.72;2.70;;;8.60;99.90;;;;;;5012178;28;20239;-72
2022/01/28 14:00:49;;;;;;;16.30;2.83;;;8.60;99.90;;;;;;4994359;28;20233;-72
2022/01/28 14:03:18;;;;;;;10.70;2.25;;;8.60;99.90;;;;;;5011928;28;20232;-71
2022/01/28 14:05:54;;;;;;;5.82;2.08;;;8.50;99.90;;;;;;5012410;28;20581;-72
2022/01/28 14:08:45;;;;;;;9.35;2.03;;;8.30;99.90;;;;;;5012104;28;20211;-72
2022/01/28 14:11:26;;;;;;;13.70;2.88;;;8.20;99.90;;;;;;5012599;28;20213;-74